Midland, MI

6:11 AM EDT on September 22, 2017 (GMT -0400)
Barstow

Weather History for KIKW - March, 2014

Change the Weather History Date:

Sunday, March 16, 2014

  Actual Average (KMBS) Record (KMBS)
Temperature  
Mean Temperature 12 °F -  
Max Temperature 18 °F 37 °F 70 °F (2012)
Min Temperature 7 °F 22 °F 8 °F (1998)
Degree Days  
Heating Degree Days 52    
Moisture  
Dew Point 2 °F    
Average Humidity 61    
Maximum Humidity 79    
Minimum Humidity 51    
Precipitation  
Precipitation 0.00 in - - ()
Sea Level Pressure  
Sea Level Pressure 30.38 in    
Wind  
Wind Speed 8 mph (NE)    
Max Wind Speed 15 mph    
Max Gust Speed 18 mph    
Visibility 10 miles    
Events      
Averages and records for this station are not official NWS values.
T = Trace of Precipitation, MM = Missing Value Source: NWS Daily Summary

Daily Weather History Graph

Daily Weather History Graph

Search for Another Location

Airport or City:

Trip Planner

Search our weather history database for the weather conditions in past years. The results will help you decide how hot, cold, wet, or windy it might be!

Date:

Astronomy

Mar. 16, 2014 Rise Set
Actual Time 7:47 AM EDT 7:44 PM EDT
Civil Twilight 7:18 AM EDT 8:13 PM EDT
Nautical Twilight 6:45 AM EDT 8:46 PM EDT
Astronomical Twilight 6:11 AM EDT 9:20 PM EDT
Moon 8:02 PM EDT (3/16) 7:29 AM EDT (3/16)
Length of Visible Light 12h 54m
Length of Day
11h 57m
Full, 100% of the Moon is Illuminated
Mar 16
Full
Mar 16
Full
Mar 23
Last Quarter
Mar 30
New
Apr 7
First Quarter

Hourly Weather History & Observations

Time (EDT) Temp. Windchill Dew Point Humidity Pressure Visibility Wind Dir Wind Speed Gust Speed Precip Events Conditions
12:14 AM 16.3 °F 4.9 °F 4.3 °F 59% 30.34 in 10.0 mi NNW 9.2 mph - N/A   Clear
12:34 AM 15.8 °F 6.1 °F 3.9 °F 60% 30.34 in 10.0 mi NNW 6.9 mph - N/A   Clear
12:54 AM 15.6 °F 7.0 °F 3.6 °F 59% 30.35 in 10.0 mi NNW 5.8 mph - N/A   Clear
1:14 AM 15.4 °F 2.3 °F 4.8 °F 63% 30.36 in 10.0 mi NW 11.5 mph - N/A   Clear
1:34 AM 14.7 °F 2.9 °F 3.6 °F 61% 30.36 in 10.0 mi NNW 9.2 mph - N/A   Clear
1:54 AM 14.0 °F 2.0 °F 1.9 °F 59% 30.37 in 10.0 mi NNW 9.2 mph - N/A   Clear
2:14 AM 13.1 °F 0.1 °F -0.4 °F 55% 30.37 in 10.0 mi NNW 10.4 mph - N/A   Clear
2:34 AM 12.6 °F -0.6 °F -0.6 °F 56% 30.38 in 10.0 mi NNW 10.4 mph - N/A   Clear
2:53 AM 12.0 °F -0.4 °F -1.5 °F 55% 30.39 in 10.0 mi NNW 9.2 mph - N/A   Clear
3:14 AM 11.3 °F -2.9 °F -2.0 °F 55% 30.39 in 10.0 mi North 11.5 mph 18.4 mph N/A   Clear
3:34 AM 11.1 °F 0.4 °F -1.3 °F 57% 30.38 in 10.0 mi North 6.9 mph - N/A   Clear
3:54 AM 10.8 °F 0.0 °F -1.3 °F 58% 30.39 in 10.0 mi North 6.9 mph - N/A   Clear
4:14 AM 10.2 °F 2.0 °F -2.0 °F 58% 30.40 in 10.0 mi North 4.6 mph - N/A   Clear
4:34 AM 10.0 °F -0.9 °F -1.8 °F 59% 30.40 in 10.0 mi NNW 6.9 mph - N/A   Clear
4:54 AM 9.5 °F 1.2 °F -1.5 °F 61% 30.42 in 10.0 mi NNW 4.6 mph - N/A   Clear
5:14 AM 9.1 °F -0.7 °F -0.6 °F 65% 30.42 in 10.0 mi NW 5.8 mph - N/A   Clear
5:34 AM 8.8 °F 0.4 °F -0.8 °F 65% 30.42 in 10.0 mi NNW 4.6 mph - N/A   Clear
5:54 AM 8.4 °F -2.8 °F -0.9 °F 66% 30.42 in 10.0 mi NNW 6.9 mph - N/A   Clear
6:14 AM 8.1 °F -3.2 °F -1.3 °F 66% 30.41 in 10.0 mi NNW 6.9 mph - N/A   Clear
6:34 AM 7.7 °F -4.8 °F -1.5 °F 66% 30.42 in 10.0 mi NNW 8.1 mph - N/A   Clear
6:54 AM 7.7 °F -0.9 °F -2.0 °F 65% 30.42 in 10.0 mi North 4.6 mph - N/A   Clear
7:14 AM 7.5 °F -3.9 °F -1.8 °F 66% 30.42 in 10.0 mi North 6.9 mph - N/A   Clear
7:34 AM 7.3 °F -4.1 °F -1.8 °F 66% 30.43 in 10.0 mi North 6.9 mph - N/A   Clear
7:54 AM 7.2 °F -3.0 °F -2.0 °F 66% 30.43 in 10.0 mi North 5.8 mph - N/A   Clear
8:14 AM 7.5 °F -1.1 °F -1.7 °F 66% 30.44 in 10.0 mi North 4.6 mph - N/A   Clear
8:33 AM 7.9 °F -3.5 °F -1.3 °F 66% 30.44 in 10.0 mi North 6.9 mph - N/A   Clear
8:54 AM 8.4 °F -2.8 °F -1.5 °F 64% 30.44 in 10.0 mi NNE 6.9 mph - N/A   Clear
9:14 AM 9.3 °F -1.7 °F -1.5 °F 62% 30.44 in 10.0 mi NNE 6.9 mph 16.1 mph N/A   Clear
9:33 AM 10.0 °F -5.9 °F -1.7 °F 59% 30.44 in 10.0 mi NNE 13.8 mph - N/A   Clear
9:54 AM 11.1 °F -1.6 °F -1.8 °F 56% 30.44 in 10.0 mi NE 9.2 mph 18.4 mph N/A   Clear
10:14 AM 11.8 °F -2.3 °F -1.3 °F 56% 30.44 in 10.0 mi North 11.5 mph - N/A   Clear
10:33 AM 12.4 °F 3.1 °F -0.9 °F 55% 30.45 in 10.0 mi NNE 5.8 mph - N/A   Clear
10:54 AM 13.1 °F 1.8 °F -2.0 °F 51% 30.45 in 10.0 mi NNE 8.1 mph - N/A   Clear
11:14 AM 14.0 °F 1.2 °F 0.1 °F 54% 30.45 in 10.0 mi ENE 10.4 mph - N/A   Clear
11:33 AM 14.0 °F 2.0 °F 0.1 °F 54% 30.45 in 10.0 mi ENE 9.2 mph - N/A   Clear
11:54 AM 15.3 °F 3.5 °F 2.1 °F 56% 30.45 in 10.0 mi NE 9.2 mph - N/A   Clear
12:14 PM 15.1 °F 1.8 °F 1.9 °F 56% 30.45 in 10.0 mi ENE 11.5 mph - N/A   Clear
12:34 PM 16.0 °F 2.3 °F 2.8 °F 56% 30.45 in 10.0 mi ENE 12.7 mph 16.1 mph N/A   Scattered Clouds
12:54 PM 16.5 °F 5.1 °F 4.5 °F 59% 30.45 in 10.0 mi East 9.2 mph - N/A   Scattered Clouds
1:14 PM 17.2 °F 3.3 °F 5.4 °F 60% 30.45 in 10.0 mi East 13.8 mph 17.3 mph N/A   Mostly Cloudy
1:34 PM 16.5 °F 3.0 °F 4.1 °F 58% 30.45 in 10.0 mi East 12.7 mph 17.3 mph N/A   Mostly Cloudy
1:54 PM 16.7 °F 2.0 °F 3.9 °F 57% 30.44 in 10.0 mi ENE 15.0 mph 18.4 mph N/A   Scattered Clouds
2:14 PM 16.7 °F 6.2 °F 3.9 °F 57% 30.43 in 10.0 mi ENE 8.1 mph - N/A   Clear
2:34 PM 17.1 °F 8.7 °F 4.6 °F 58% 30.42 in 10.0 mi NE 5.8 mph - N/A   Scattered Clouds
2:54 PM 17.2 °F 3.9 °F 5.0 °F 59% 30.42 in 10.0 mi East 12.7 mph - N/A   Scattered Clouds
3:13 PM 17.6 °F 5.7 °F 5.4 °F 59% 30.41 in 10.0 mi East 10.4 mph 16.1 mph N/A   Scattered Clouds
3:34 PM 18.1 °F 5.0 °F 6.3 °F 60% 30.39 in 10.0 mi ENE 12.7 mph - N/A   Scattered Clouds
3:54 PM 17.2 °F 4.5 °F 5.5 °F 60% 30.39 in 10.0 mi ENE 11.5 mph - N/A   Scattered Clouds
4:13 PM 17.1 °F 8.7 °F 4.5 °F 58% 30.38 in 10.0 mi East 5.8 mph - N/A   Scattered Clouds
4:34 PM 17.6 °F 6.4 °F 5.4 °F 59% 30.37 in 10.0 mi East 9.2 mph - N/A   Scattered Clouds
4:54 PM 17.6 °F 7.3 °F 5.4 °F 59% 30.36 in 10.0 mi East 8.1 mph - N/A   Scattered Clouds
5:13 PM 17.6 °F 8.2 °F 5.5 °F 59% 30.35 in 10.0 mi ENE 6.9 mph - N/A   Clear
5:34 PM 17.6 °F 5.7 °F 5.4 °F 59% 30.34 in 10.0 mi East 10.4 mph - N/A   Clear
5:54 PM 17.1 °F 6.6 °F 5.2 °F 60% 30.33 in 10.0 mi ENE 8.1 mph - N/A   Clear
6:13 PM 17.2 °F 6.8 °F 4.8 °F 58% 30.33 in 10.0 mi East 8.1 mph - N/A   Clear
6:34 PM 17.2 °F 8.9 °F 5.4 °F 60% 30.32 in 10.0 mi East 5.8 mph - N/A   Clear
6:54 PM 16.5 °F 11.0 °F 4.1 °F 58% 30.32 in 10.0 mi East 3.5 mph - N/A   Clear
7:13 PM 16.7 °F 7.2 °F 5.0 °F 60% 30.31 in 10.0 mi East 6.9 mph - N/A   Clear
7:34 PM 15.8 °F 7.2 °F 5.0 °F 62% 30.30 in 10.0 mi East 5.8 mph - N/A   Clear
7:54 PM 15.6 °F 5.9 °F 5.4 °F 64% 30.30 in 10.0 mi East 6.9 mph - N/A   Clear
8:13 PM 15.6 °F 8.3 °F 5.0 °F 63% 30.29 in 10.0 mi ESE 4.6 mph - N/A   Clear
8:34 PM 15.4 °F 9.8 °F 4.3 °F 61% 30.29 in 10.0 mi East 3.5 mph - N/A   Clear
8:54 PM 15.1 °F 9.4 °F 4.5 °F 63% 30.29 in 10.0 mi East 3.5 mph - N/A   Clear
9:13 PM 14.9 °F 9.2 °F 5.4 °F 66% 30.28 in 10.0 mi East 3.5 mph - N/A   Clear
9:34 PM 12.9 °F 6.9 °F 5.0 °F 71% 30.27 in 10.0 mi East 3.5 mph - N/A   Clear
9:54 PM 12.6 °F - 5.0 °F 72% 30.27 in 10.0 mi Calm Calm - N/A   Clear
10:13 PM 12.0 °F - 5.2 °F 74% 30.26 in 10.0 mi Calm Calm - N/A   Clear
10:34 PM 11.8 °F - 4.5 °F 72% 30.26 in 10.0 mi Calm Calm - N/A   Clear
10:54 PM 11.1 °F - 4.1 °F 73% 30.25 in 10.0 mi Calm Calm - N/A   Clear
11:14 PM 10.6 °F 4.3 °F 4.1 °F 75% 30.23 in 10.0 mi East 3.5 mph - N/A   Clear
11:34 PM 10.9 °F - 4.3 °F 75% 30.23 in 10.0 mi Calm Calm - N/A   Clear
11:54 PM 9.0 °F - 3.7 °F 79% 30.23 in 10.0 mi Calm Calm - N/A   Clear